sensor_id;sensor_type;location;lat;lon;timestamp;pressure;altitude;pressure_sealevel;temperature;humidity
65329;BME280;51941;52.210;5.158;2024-03-17T00:01:35;102328.25;;;5.28;69.50
65329;BME280;51941;52.210;5.158;2024-03-17T00:04:02;102325.06;;;5.26;69.22
65329;BME280;51941;52.210;5.158;2024-03-17T00:06:29;102330.31;;;5.17;69.63
65329;BME280;51941;52.210;5.158;2024-03-17T00:08:56;102325.66;;;5.09;69.61
65329;BME280;51941;52.210;5.158;2024-03-17T00:11:23;102317.34;;;5.10;69.79
65329;BME280;51941;52.210;5.158;2024-03-17T00:13:49;102325.66;;;5.09;69.82
65329;BME280;51941;52.210;5.158;2024-03-17T00:16:15;102327.25;;;5.10;69.61
65329;BME280;51941;52.210;5.158;2024-03-17T00:18:44;102321.00;;;5.01;70.38
65329;BME280;51941;52.210;5.158;2024-03-17T00:21:11;102306.25;;;5.03;70.00
65329;BME280;51941;52.210;5.158;2024-03-17T00:23:39;102313.06;;;5.09;69.82
65329;BME280;51941;52.210;5.158;2024-03-17T00:26:05;102306.16;;;5.08;69.47
65329;BME280;51941;52.210;5.158;2024-03-17T00:28:31;102307.25;;;5.07;69.74
65329;BME280;51941;52.210;5.158;2024-03-17T00:31:03;102305.06;;;5.09;69.83
65329;BME280;51941;52.210;5.158;2024-03-17T00:33:30;102301.31;;;5.10;69.66
65329;BME280;51941;52.210;5.158;2024-03-17T00:35:55;102296.75;;;5.11;69.56
65329;BME280;51941;52.210;5.158;2024-03-17T00:38:22;102301.13;;;5.07;69.80
65329;BME280;51941;52.210;5.158;2024-03-17T00:40:52;102303.59;;;5.03;69.97
65329;BME280;51941;52.210;5.158;2024-03-17T00:43:19;102307.84;;;5.04;70.08
65329;BME280;51941;52.210;5.158;2024-03-17T00:45:51;102298.44;;;5.07;69.87
65329;BME280;51941;52.210;5.158;2024-03-17T00:48:18;102299.84;;;5.04;69.83
65329;BME280;51941;52.210;5.158;2024-03-17T00:50:43;102298.25;;;5.03;69.47
65329;BME280;51941;52.210;5.158;2024-03-17T00:53:10;102295.28;;;5.05;69.92
65329;BME280;51941;52.210;5.158;2024-03-17T00:55:37;102291.13;;;4.99;70.51
65329;BME280;51941;52.210;5.158;2024-03-17T00:58:05;102301.63;;;5.09;69.72
65329;BME280;51941;52.210;5.158;2024-03-17T01:00:31;102297.47;;;5.03;70.55
65329;BME280;51941;52.210;5.158;2024-03-17T01:02:59;102295.78;;;5.07;70.41
65329;BME280;51941;52.210;5.158;2024-03-17T01:05:27;102291.44;;;5.11;70.09
65329;BME280;51941;52.210;5.158;2024-03-17T01:07:54;102288.34;;;5.04;70.78
65329;BME280;51941;52.210;5.158;2024-03-17T01:10:19;102291.81;;;5.04;70.89
65329;BME280;51941;52.210;5.158;2024-03-17T01:12:46;102289.03;;;5.09;70.69
65329;BME280;51941;52.210;5.158;2024-03-17T01:15:13;102278.56;;;5.13;70.23
65329;BME280;51941;52.210;5.158;2024-03-17T01:17:40;102277.88;;;5.21;70.14
65329;BME280;51941;52.210;5.158;2024-03-17T01:20:07;102274.00;;;5.27;69.89
65329;BME280;51941;52.210;5.158;2024-03-17T01:22:34;102272.72;;;5.25;70.25
65329;BME280;51941;52.210;5.158;2024-03-17T01:25:00;102268.09;;;5.30;70.10
65329;BME280;51941;52.210;5.158;2024-03-17T01:27:27;102269.34;;;5.33;70.37
65329;BME280;51941;52.210;5.158;2024-03-17T01:29:53;102270.47;;;5.32;70.53
65329;BME280;51941;52.210;5.158;2024-03-17T01:32:21;102260.97;;;5.40;70.21
65329;BME280;51941;52.210;5.158;2024-03-17T01:34:47;102259.84;;;5.41;70.13
65329;BME280;51941;52.210;5.158;2024-03-17T01:37:13;102250.16;;;5.45;70.38
65329;BME280;51941;52.210;5.158;2024-03-17T01:39:39;102253.09;;;5.43;70.65
65329;BME280;51941;52.210;5.158;2024-03-17T01:42:06;102248.66;;;5.52;70.15
65329;BME280;51941;52.210;5.158;2024-03-17T01:44:32;102244.78;;;5.59;70.07
65329;BME280;51941;52.210;5.158;2024-03-17T01:46:59;102242.50;;;5.66;69.79
65329;BME280;51941;52.210;5.158;2024-03-17T01:49:27;102236.22;;;5.70;69.72
65329;BME280;51941;52.210;5.158;2024-03-17T01:51:55;102234.38;;;5.71;69.67
65329;BME280;51941;52.210;5.158;2024-03-17T01:54:21;102234.97;;;5.68;70.17
65329;BME280;51941;52.210;5.158;2024-03-17T01:56:48;102229.31;;;5.69;69.79
65329;BME280;51941;52.210;5.158;2024-03-17T01:59:14;102240.19;;;5.73;69.79
65329;BME280;51941;52.210;5.158;2024-03-17T02:01:41;102231.38;;;5.72;69.57
65329;BME280;51941;52.210;5.158;2024-03-17T02:04:07;102228.84;;;5.67;69.57
65329;BME280;51941;52.210;5.158;2024-03-17T02:06:35;102232.88;;;5.65;70.01
65329;BME280;51941;52.210;5.158;2024-03-17T02:09:01;102232.69;;;5.75;69.50
65329;BME280;51941;52.210;5.158;2024-03-17T02:11:29;102225.72;;;5.74;69.94
65329;BME280;51941;52.210;5.158;2024-03-17T02:13:56;102232.34;;;5.77;69.64
65329;BME280;51941;52.210;5.158;2024-03-17T02:16:23;102229.19;;;5.74;69.63
65329;BME280;51941;52.210;5.158;2024-03-17T02:18:49;102222.13;;;5.79;69.69
65329;BME280;51941;52.210;5.158;2024-03-17T02:21:16;102226.13;;;5.81;69.65
65329;BME280;51941;52.210;5.158;2024-03-17T02:23:43;102211.97;;;5.81;69.92
65329;BME280;51941;52.210;5.158;2024-03-17T02:26:10;102207.25;;;5.86;69.40
65329;BME280;51941;52.210;5.158;2024-03-17T02:28:40;102207.94;;;5.92;69.08
65329;BME280;51941;52.210;5.158;2024-03-17T02:31:08;102209.34;;;5.89;69.22
65329;BME280;51941;52.210;5.158;2024-03-17T02:33:35;102202.41;;;5.88;69.27
65329;BME280;51941;52.210;5.158;2024-03-17T02:36:02;102208.41;;;5.94;69.27
65329;BME280;51941;52.210;5.158;2024-03-17T02:38:29;102201.69;;;5.97;69.29
65329;BME280;51941;52.210;5.158;2024-03-17T02:41:15;102195.53;;;5.96;69.04
65329;BME280;51941;52.210;5.158;2024-03-17T02:43:42;102202.19;;;5.99;68.85
65329;BME280;51941;52.210;5.158;2024-03-17T02:46:11;102200.47;;;6.03;68.79
65329;BME280;51941;52.210;5.158;2024-03-17T02:48:38;102205.69;;;6.08;68.71
65329;BME280;51941;52.210;5.158;2024-03-17T02:51:10;102194.75;;;5.96;69.67
65329;BME280;51941;52.210;5.158;2024-03-17T02:53:38;102189.09;;;5.97;69.37
65329;BME280;51941;52.210;5.158;2024-03-17T02:56:05;102191.03;;;6.05;69.22
65329;BME280;51941;52.210;5.158;2024-03-17T02:58:35;102192.63;;;6.06;68.98
65329;BME280;51941;52.210;5.158;2024-03-17T03:01:02;102199.06;;;6.05;69.06
65329;BME280;51941;52.210;5.158;2024-03-17T03:03:30;102198.88;;;6.02;69.26
65329;BME280;51941;52.210;5.158;2024-03-17T03:05:56;102201.75;;;6.05;69.10
65329;BME280;51941;52.210;5.158;2024-03-17T03:08:24;102188.56;;;6.09;68.92
65329;BME280;51941;52.210;5.158;2024-03-17T03:10:51;102193.72;;;6.05;69.12
65329;BME280;51941;52.210;5.158;2024-03-17T03:13:18;102192.31;;;6.08;69.13
65329;BME280;51941;52.210;5.158;2024-03-17T03:15:47;102187.16;;;6.11;69.14
65329;BME280;51941;52.210;5.158;2024-03-17T03:18:14;102196.88;;;6.07;69.05
65329;BME280;51941;52.210;5.158;2024-03-17T03:20:41;102196.41;;;6.05;69.50
65329;BME280;51941;52.210;5.158;2024-03-17T03:23:08;102196.59;;;6.09;69.42
65329;BME280;51941;52.210;5.158;2024-03-17T03:25:35;102194.97;;;6.08;69.94
65329;BME280;51941;52.210;5.158;2024-03-17T03:28:02;102193.59;;;6.10;70.04
65329;BME280;51941;52.210;5.158;2024-03-17T03:30:29;102186.38;;;6.11;69.35
65329;BME280;51941;52.210;5.158;2024-03-17T03:32:58;102183.50;;;6.07;69.72
65329;BME280;51941;52.210;5.158;2024-03-17T03:35:27;102185.69;;;6.05;70.24
65329;BME280;51941;52.210;5.158;2024-03-17T03:37:58;102177.22;;;6.12;69.96
65329;BME280;51941;52.210;5.158;2024-03-17T03:40:26;102177.41;;;6.16;69.60
65329;BME280;51941;52.210;5.158;2024-03-17T03:42:53;102179.50;;;6.19;69.40
65329;BME280;51941;52.210;5.158;2024-03-17T03:45:19;102173.22;;;6.23;69.44
65329;BME280;51941;52.210;5.158;2024-03-17T03:47:46;102170.53;;;6.23;69.36
65329;BME280;51941;52.210;5.158;2024-03-17T03:50:19;102161.44;;;6.24;69.58
65329;BME280;51941;52.210;5.158;2024-03-17T03:52:46;102154.47;;;6.23;69.36
65329;BME280;51941;52.210;5.158;2024-03-17T03:55:16;102151.50;;;6.25;69.35
65329;BME280;51941;52.210;5.158;2024-03-17T03:57:43;102141.88;;;6.24;69.42
65329;BME280;51941;52.210;5.158;2024-03-17T04:00:12;102141.88;;;6.24;69.46
65329;BME280;51941;52.210;5.158;2024-03-17T04:02:40;102129.56;;;6.14;70.10
65329;BME280;51941;52.210;5.158;2024-03-17T04:05:07;102130.22;;;6.20;69.79
65329;BME280;51941;52.210;5.158;2024-03-17T04:07:35;102125.69;;;6.20;69.76
65329;BME280;51941;52.210;5.158;2024-03-17T04:10:03;102128.03;;;6.22;69.66
65329;BME280;51941;52.210;5.158;2024-03-17T04:12:30;102126.75;;;6.19;69.82
65329;BME280;51941;52.210;5.158;2024-03-17T04:14:58;102118.44;;;6.21;69.78
65329;BME280;51941;52.210;5.158;2024-03-17T04:17:25;102116.53;;;6.21;69.83
65329;BME280;51941;52.210;5.158;2024-03-17T04:19:54;102117.03;;;6.23;69.81
65329;BME280;51941;52.210;5.158;2024-03-17T04:22:22;102110.53;;;6.16;70.25
65329;BME280;51941;52.210;5.158;2024-03-17T04:24:51;102107.25;;;6.19;69.81
65329;BME280;51941;52.210;5.158;2024-03-17T04:27:19;102118.44;;;6.21;69.96
65329;BME280;51941;52.210;5.158;2024-03-17T04:29:46;102101.28;;;6.22;69.90
65329;BME280;51941;52.210;5.158;2024-03-17T04:32:14;102097.16;;;6.16;70.16
65329;BME280;51941;52.210;5.158;2024-03-17T04:34:40;102098.13;;;6.20;70.10
65329;BME280;51941;52.210;5.158;2024-03-17T04:37:08;102086.47;;;6.16;70.27
65329;BME280;51941;52.210;5.158;2024-03-17T04:39:36;102094.47;;;6.16;70.35
65329;BME280;51941;52.210;5.158;2024-03-17T04:42:06;102092.13;;;6.14;70.34
65329;BME280;51941;52.210;5.158;2024-03-17T04:44:32;102106.47;;;6.18;70.21
65329;BME280;51941;52.210;5.158;2024-03-17T04:46:59;102111.66;;;6.14;70.73
65329;BME280;51941;52.210;5.158;2024-03-17T04:49:26;102116.06;;;6.19;70.47
65329;BME280;51941;52.210;5.158;2024-03-17T04:51:53;102105.66;;;6.18;70.70
65329;BME280;51941;52.210;5.158;2024-03-17T04:54:20;102119.03;;;6.18;70.59
65329;BME280;51941;52.210;5.158;2024-03-17T04:56:46;102112.72;;;6.13;71.03
65329;BME280;51941;52.210;5.158;2024-03-17T04:59:15;102107.84;;;6.16;70.92
65329;BME280;51941;52.210;5.158;2024-03-17T05:01:41;102111.00;;;6.18;71.06
65329;BME280;51941;52.210;5.158;2024-03-17T05:04:08;102109.16;;;6.18;71.10
65329;BME280;51941;52.210;5.158;2024-03-17T05:06:35;102100.50;;;6.21;70.50
65329;BME280;51941;52.210;5.158;2024-03-17T05:09:02;102102.22;;;6.26;70.40
65329;BME280;51941;52.210;5.158;2024-03-17T05:11:30;102093.13;;;6.27;70.32
65329;BME280;51941;52.210;5.158;2024-03-17T05:13:58;102095.97;;;6.30;70.34
65329;BME280;51941;52.210;5.158;2024-03-17T05:16:26;102093.31;;;6.30;70.34
65329;BME280;51941;52.210;5.158;2024-03-17T05:18:55;102098.16;;;6.28;70.05
65329;BME280;51941;52.210;5.158;2024-03-17T05:21:22;102095.31;;;6.25;70.32
65329;BME280;51941;52.210;5.158;2024-03-17T05:23:53;102097.50;;;6.23;70.36
65329;BME280;51941;52.210;5.158;2024-03-17T05:26:20;102100.84;;;6.28;70.12
65329;BME280;51941;52.210;5.158;2024-03-17T05:28:47;102100.66;;;6.25;70.17
65329;BME280;51941;52.210;5.158;2024-03-17T05:31:14;102092.94;;;6.23;70.11
65329;BME280;51941;52.210;5.158;2024-03-17T05:33:44;102092.16;;;6.23;70.16
65329;BME280;51941;52.210;5.158;2024-03-17T05:36:11;102084.91;;;6.23;70.01
65329;BME280;51941;52.210;5.158;2024-03-17T05:38:38;102089.34;;;6.28;69.69
65329;BME280;51941;52.210;5.158;2024-03-17T05:41:06;102086.50;;;6.24;69.96
65329;BME280;51941;52.210;5.158;2024-03-17T05:43:38;102090.28;;;6.23;69.77
65329;BME280;51941;52.210;5.158;2024-03-17T05:46:06;102090.91;;;6.20;69.84
65329;BME280;51941;52.210;5.158;2024-03-17T05:48:33;102088.84;;;6.26;69.83
65329;BME280;51941;52.210;5.158;2024-03-17T05:51:02;102094.84;;;6.23;69.89
65329;BME280;51941;52.210;5.158;2024-03-17T05:53:29;102095.91;;;6.22;69.94
65329;BME280;51941;52.210;5.158;2024-03-17T05:55:58;102094.06;;;6.22;69.77
65329;BME280;51941;52.210;5.158;2024-03-17T05:58:25;102093.56;;;6.20;69.83
65329;BME280;51941;52.210;5.158;2024-03-17T06:00:52;102090.91;;;6.20;69.61
65329;BME280;51941;52.210;5.158;2024-03-17T06:03:19;102092.00;;;6.19;69.86
65329;BME280;51941;52.210;5.158;2024-03-17T06:05:47;102098.94;;;6.20;70.05
65329;BME280;51941;52.210;5.158;2024-03-17T06:08:15;102096.72;;;6.22;70.00
65329;BME280;51941;52.210;5.158;2024-03-17T06:10:43;102099.72;;;6.29;70.00
65329;BME280;51941;52.210;5.158;2024-03-17T06:13:10;102091.09;;;6.32;69.96
65329;BME280;51941;52.210;5.158;2024-03-17T06:15:39;102087.78;;;6.36;69.93
65329;BME280;51941;52.210;5.158;2024-03-17T06:18:07;102094.09;;;6.40;69.88
65329;BME280;51941;52.210;5.158;2024-03-17T06:20:39;102095.09;;;6.44;70.11
65329;BME280;51941;52.210;5.158;2024-03-17T06:23:07;102086.59;;;6.50;69.85
65329;BME280;51941;52.210;5.158;2024-03-17T06:25:39;102090.69;;;6.57;69.06
65329;BME280;51941;52.210;5.158;2024-03-17T06:28:06;102088.38;;;6.64;69.09
65329;BME280;51941;52.210;5.158;2024-03-17T06:30:35;102086.63;;;6.68;69.09
65329;BME280;51941;52.210;5.158;2024-03-17T06:33:04;102090.13;;;6.77;68.77
65329;BME280;51941;52.210;5.158;2024-03-17T06:35:31;102097.84;;;6.87;69.08
65329;BME280;51941;52.210;5.158;2024-03-17T06:37:59;102095.66;;;6.89;68.79
65329;BME280;51941;52.210;5.158;2024-03-17T06:40:26;102100.84;;;6.94;68.31
65329;BME280;51941;52.210;5.158;2024-03-17T06:42:55;102094.84;;;6.80;67.76
65329;BME280;51941;52.210;5.158;2024-03-17T06:45:21;102091.09;;;6.90;67.89
65329;BME280;51941;52.210;5.158;2024-03-17T06:47:49;102089.03;;;7.04;68.48
65329;BME280;51941;52.210;5.158;2024-03-17T06:50:16;102087.78;;;7.10;68.35
65329;BME280;51941;52.210;5.158;2024-03-17T06:52:43;102085.25;;;7.14;67.41
65329;BME280;51941;52.210;5.158;2024-03-17T06:55:09;102084.31;;;7.27;67.93
65329;BME280;51941;52.210;5.158;2024-03-17T06:57:38;102079.59;;;7.33;67.19
65329;BME280;51941;52.210;5.158;2024-03-17T07:00:11;102083.38;;;7.32;66.74
65329;BME280;51941;52.210;5.158;2024-03-17T07:02:39;102084.97;;;7.42;66.78
65329;BME280;51941;52.210;5.158;2024-03-17T07:05:11;102078.81;;;7.41;66.87
65329;BME280;51941;52.210;5.158;2024-03-17T07:07:41;102085.91;;;7.46;66.87
65329;BME280;51941;52.210;5.158;2024-03-17T07:10:08;102084.97;;;7.50;66.67
65329;BME280;51941;52.210;5.158;2024-03-17T07:12:36;102092.84;;;7.56;66.88
65329;BME280;51941;52.210;5.158;2024-03-17T07:15:04;102092.84;;;7.47;67.10
65329;BME280;51941;52.210;5.158;2024-03-17T07:17:32;102099.00;;;7.56;67.14
65329;BME280;51941;52.210;5.158;2024-03-17T07:19:59;102097.25;;;7.60;67.14
65329;BME280;51941;52.210;5.158;2024-03-17T07:22:26;102102.13;;;7.67;66.79
65329;BME280;51941;52.210;5.158;2024-03-17T07:24:54;102085.38;;;7.79;66.87
65329;BME280;51941;52.210;5.158;2024-03-17T07:27:25;102091.53;;;7.88;66.91
65329;BME280;51941;52.210;5.158;2024-03-17T07:29:52;102091.78;;;7.95;66.46
65329;BME280;51941;52.210;5.158;2024-03-17T07:32:19;102087.84;;;8.01;66.42
65329;BME280;51941;52.210;5.158;2024-03-17T07:34:48;102092.88;;;8.11;66.24
65329;BME280;51941;52.210;5.158;2024-03-17T07:37:15;102086.22;;;8.18;66.15
65329;BME280;51941;52.210;5.158;2024-03-17T07:39:42;102080.22;;;8.21;66.02
65329;BME280;51941;52.210;5.158;2024-03-17T07:42:09;102077.19;;;8.22;65.95
65329;BME280;51941;52.210;5.158;2024-03-17T07:44:35;102085.94;;;8.40;65.16
65329;BME280;51941;52.210;5.158;2024-03-17T07:47:02;102078.31;;;8.51;64.96
65329;BME280;51941;52.210;5.158;2024-03-17T07:49:30;102078.06;;;8.65;65.13
65329;BME280;51941;52.210;5.158;2024-03-17T07:51:58;102072.78;;;8.77;64.68
65329;BME280;51941;52.210;5.158;2024-03-17T07:54:25;102074.75;;;8.89;64.93
65329;BME280;51941;52.210;5.158;2024-03-17T07:56:53;102078.63;;;9.00;64.32
65329;BME280;51941;52.210;5.158;2024-03-17T07:59:20;102077.31;;;9.06;63.70
65329;BME280;51941;52.210;5.158;2024-03-17T08:01:47;102067.34;;;9.07;63.92
65329;BME280;51941;52.210;5.158;2024-03-17T08:04:14;102065.38;;;9.16;63.72
65329;BME280;51941;52.210;5.158;2024-03-17T08:06:40;102066.22;;;9.08;63.43
65329;BME280;51941;52.210;5.158;2024-03-17T08:09:09;102076.91;;;9.17;64.03
65329;BME280;51941;52.210;5.158;2024-03-17T08:11:36;102079.84;;;9.24;63.63
65329;BME280;51941;52.210;5.158;2024-03-17T08:14:03;102066.22;;;9.29;63.64
65329;BME280;51941;52.210;5.158;2024-03-17T08:16:31;102058.94;;;9.29;63.58
65329;BME280;51941;52.210;5.158;2024-03-17T08:18:58;102064.72;;;9.19;63.42
65329;BME280;51941;52.210;5.158;2024-03-17T08:21:24;102060.25;;;9.23;63.47
65329;BME280;51941;52.210;5.158;2024-03-17T08:23:54;102061.03;;;9.24;63.76
65329;BME280;51941;52.210;5.158;2024-03-17T08:26:25;102063.72;;;9.24;63.91
65329;BME280;51941;52.210;5.158;2024-03-17T08:28:51;102055.78;;;9.27;63.83
65329;BME280;51941;52.210;5.158;2024-03-17T08:31:18;102052.84;;;9.41;63.56
65329;BME280;51941;52.210;5.158;2024-03-17T08:33:45;102065.22;;;9.55;62.86
65329;BME280;51941;52.210;5.158;2024-03-17T08:36:16;102064.84;;;9.56;62.75
65329;BME280;51941;52.210;5.158;2024-03-17T08:38:44;102071.06;;;9.69;62.61
65329;BME280;51941;52.210;5.158;2024-03-17T08:41:11;102084.00;;;9.88;62.88
65329;BME280;51941;52.210;5.158;2024-03-17T08:43:40;102077.88;;;10.00;61.66
65329;BME280;51941;52.210;5.158;2024-03-17T08:46:09;102068.13;;;10.20;62.67
65329;BME280;51941;52.210;5.158;2024-03-17T08:48:38;102075.41;;;10.44;62.17
65329;BME280;51941;52.210;5.158;2024-03-17T08:51:06;102064.03;;;10.50;61.39
65329;BME280;51941;52.210;5.158;2024-03-17T08:53:33;102060.75;;;10.69;61.58
65329;BME280;51941;52.210;5.158;2024-03-17T08:56:03;102061.38;;;10.26;61.35
65329;BME280;51941;52.210;5.158;2024-03-17T08:58:31;102070.28;;;10.79;61.13
65329;BME280;51941;52.210;5.158;2024-03-17T09:01:03;102062.97;;;10.92;61.02
65329;BME280;51941;52.210;5.158;2024-03-17T09:03:30;102059.34;;;10.88;60.25
65329;BME280;51941;52.210;5.158;2024-03-17T09:05:57;102059.72;;;10.86;60.48
65329;BME280;51941;52.210;5.158;2024-03-17T09:08:24;102072.97;;;10.79;60.76
65329;BME280;51941;52.210;5.158;2024-03-17T09:10:54;102065.78;;;10.96;60.32
65329;BME280;51941;52.210;5.158;2024-03-17T09:13:22;102060.38;;;10.83;60.58
65329;BME280;51941;52.210;5.158;2024-03-17T09:15:52;102068.63;;;10.62;61.07
65329;BME280;51941;52.210;5.158;2024-03-17T09:18:21;102062.38;;;10.46;61.47
65329;BME280;51941;52.210;5.158;2024-03-17T09:20:56;102068.97;;;10.73;61.16
65329;BME280;51941;52.210;5.158;2024-03-17T09:23:23;102063.44;;;10.82;61.09
65329;BME280;51941;52.210;5.158;2024-03-17T09:25:56;102054.09;;;10.92;60.71
65329;BME280;51941;52.210;5.158;2024-03-17T09:28:23;102054.44;;;10.90;60.22
65329;BME280;51941;52.210;5.158;2024-03-17T09:30:49;102053.00;;;10.93;60.71
65329;BME280;51941;52.210;5.158;2024-03-17T09:33:18;102061.44;;;10.79;61.01
65329;BME280;51941;52.210;5.158;2024-03-17T09:35:54;102060.38;;;10.96;60.97
65329;BME280;51941;52.210;5.158;2024-03-17T09:38:22;102045.91;;;11.00;60.63
65329;BME280;51941;52.210;5.158;2024-03-17T09:40:49;102042.72;;;11.11;60.21
65329;BME280;51941;52.210;5.158;2024-03-17T09:43:19;102046.28;;;11.15;60.22
65329;BME280;51941;52.210;5.158;2024-03-17T09:45:46;102039.16;;;11.22;60.21
65329;BME280;51941;52.210;5.158;2024-03-17T09:48:14;102028.66;;;11.33;59.74
65329;BME280;51941;52.210;5.158;2024-03-17T09:50:50;102038.88;;;11.40;59.63
65329;BME280;51941;52.210;5.158;2024-03-17T09:53:23;102034.06;;;11.49;59.84
65329;BME280;51941;52.210;5.158;2024-03-17T09:55:50;102033.94;;;11.58;59.41
65329;BME280;51941;52.210;5.158;2024-03-17T09:58:17;102036.09;;;11.52;58.35
65329;BME280;51941;52.210;5.158;2024-03-17T10:00:44;102039.47;;;11.65;59.31
65329;BME280;51941;52.210;5.158;2024-03-17T10:03:11;102037.31;;;11.55;59.39
65329;BME280;51941;52.210;5.158;2024-03-17T10:05:38;102036.88;;;11.53;59.41
65329;BME280;51941;52.210;5.158;2024-03-17T10:08:06;102027.66;;;11.54;59.39
65329;BME280;51941;52.210;5.158;2024-03-17T10:10:35;102027.75;;;11.73;59.37
65329;BME280;51941;52.210;5.158;2024-03-17T10:13:02;102016.78;;;11.82;58.21
65329;BME280;51941;52.210;5.158;2024-03-17T10:15:29;102022.19;;;11.82;58.17
65329;BME280;51941;52.210;5.158;2024-03-17T10:17:56;102025.75;;;11.70;59.16
65329;BME280;51941;52.210;5.158;2024-03-17T10:20:24;102022.59;;;11.68;58.50
65329;BME280;51941;52.210;5.158;2024-03-17T10:23:02;102020.66;;;12.00;58.38
65329;BME280;51941;52.210;5.158;2024-03-17T10:25:31;102017.97;;;12.16;58.00
65329;BME280;51941;52.210;5.158;2024-03-17T10:28:00;102011.84;;;12.19;57.96
65329;BME280;51941;52.210;5.158;2024-03-17T10:30:28;102015.53;;;12.11;57.97
65329;BME280;51941;52.210;5.158;2024-03-17T10:32:57;102015.78;;;12.38;58.02
65329;BME280;51941;52.210;5.158;2024-03-17T10:35:26;102017.63;;;12.53;57.65
65329;BME280;51941;52.210;5.158;2024-03-17T10:37:57;102014.88;;;12.50;56.47
65329;BME280;51941;52.210;5.158;2024-03-17T10:40:25;102011.19;;;12.77;56.36
65329;BME280;51941;52.210;5.158;2024-03-17T10:42:52;102011.97;;;12.97;56.79
65329;BME280;51941;52.210;5.158;2024-03-17T10:45:20;102006.47;;;12.94;56.52
65329;BME280;51941;52.210;5.158;2024-03-17T10:47:49;101998.09;;;12.79;57.11
65329;BME280;51941;52.210;5.158;2024-03-17T10:50:18;102002.41;;;13.03;56.58
65329;BME280;51941;52.210;5.158;2024-03-17T10:52:46;101994.63;;;13.21;56.24
65329;BME280;51941;52.210;5.158;2024-03-17T10:55:22;101986.34;;;13.34;56.22
65329;BME280;51941;52.210;5.158;2024-03-17T10:57:51;101985.84;;;13.51;55.97
65329;BME280;51941;52.210;5.158;2024-03-17T11:00:19;101986.84;;;13.62;55.47
65329;BME280;51941;52.210;5.158;2024-03-17T11:02:49;101983.38;;;13.62;55.67
65329;BME280;51941;52.210;5.158;2024-03-17T11:05:19;101978.19;;;13.76;55.29
65329;BME280;51941;52.210;5.158;2024-03-17T11:07:49;101978.63;;;14.09;55.29
65329;BME280;51941;52.210;5.158;2024-03-17T11:10:19;101970.56;;;14.12;54.07
65329;BME280;51941;52.210;5.158;2024-03-17T11:12:49;101973.25;;;14.39;54.59
65329;BME280;51941;52.210;5.158;2024-03-17T11:15:39;101966.19;;;14.31;54.41
65329;BME280;51941;52.210;5.158;2024-03-17T11:18:41;101975.53;;;14.37;54.20
65329;BME280;51941;52.210;5.158;2024-03-17T11:21:19;101967.88;;;14.42;53.10
65329;BME280;51941;52.210;5.158;2024-03-17T11:23:58;101971.78;;;14.45;54.29
65329;BME280;51941;52.210;5.158;2024-03-17T11:26:30;101962.94;;;14.21;55.10
65329;BME280;51941;52.210;5.158;2024-03-17T11:28:57;101962.06;;;14.14;54.17
65329;BME280;51941;52.210;5.158;2024-03-17T11:31:37;101968.25;;;14.14;54.25
65329;BME280;51941;52.210;5.158;2024-03-17T11:34:26;101968.91;;;14.04;54.36
65329;BME280;51941;52.210;5.158;2024-03-17T11:36:53;101968.25;;;14.14;54.70
65329;BME280;51941;52.210;5.158;2024-03-17T11:39:20;101959.72;;;14.12;55.11
65329;BME280;51941;52.210;5.158;2024-03-17T11:41:51;101965.38;;;14.30;54.43
65329;BME280;51941;52.210;5.158;2024-03-17T11:44:24;101970.44;;;14.32;54.63
65329;BME280;51941;52.210;5.158;2024-03-17T11:46:53;101971.09;;;14.21;54.95
65329;BME280;51941;52.210;5.158;2024-03-17T11:49:24;101963.72;;;14.22;55.15
65329;BME280;51941;52.210;5.158;2024-03-17T11:51:53;101966.66;;;13.83;55.09
65329;BME280;51941;52.210;5.158;2024-03-17T11:54:23;101962.19;;;13.94;55.39
65329;BME280;51941;52.210;5.158;2024-03-17T11:56:53;101965.19;;;13.89;55.69
65329;BME280;51941;52.210;5.158;2024-03-17T11:59:20;101958.31;;;13.69;56.78
65329;BME280;51941;52.210;5.158;2024-03-17T12:01:48;101961.63;;;13.81;56.15
65329;BME280;51941;52.210;5.158;2024-03-17T12:04:15;101962.50;;;13.62;56.58
65329;BME280;51941;52.210;5.158;2024-03-17T12:06:46;101955.59;;;13.45;56.73
65329;BME280;51941;52.210;5.158;2024-03-17T12:09:18;101952.66;;;13.77;56.34
65329;BME280;51941;52.210;5.158;2024-03-17T12:11:47;101948.53;;;13.87;56.21
65329;BME280;51941;52.210;5.158;2024-03-17T12:14:15;101949.94;;;14.04;56.29
65329;BME280;51941;52.210;5.158;2024-03-17T12:16:51;101949.81;;;13.93;56.84
65329;BME280;51941;52.210;5.158;2024-03-17T12:19:17;101947.22;;;14.04;56.57
65329;BME280;51941;52.210;5.158;2024-03-17T12:21:51;101944.44;;;14.27;56.23
65329;BME280;51941;52.210;5.158;2024-03-17T12:24:18;101934.69;;;14.22;56.42
65329;BME280;51941;52.210;5.158;2024-03-17T12:26:47;101933.41;;;14.13;56.63
65329;BME280;51941;52.210;5.158;2024-03-17T12:29:27;101928.63;;;14.02;56.48
65329;BME280;51941;52.210;5.158;2024-03-17T12:31:56;101928.47;;;13.65;56.84
65329;BME280;51941;52.210;5.158;2024-03-17T12:34:25;101926.03;;;13.83;57.53
65329;BME280;51941;52.210;5.158;2024-03-17T12:36:55;101916.59;;;14.00;56.64
65329;BME280;51941;52.210;5.158;2024-03-17T12:39:22;101918.91;;;13.98;56.86
65329;BME280;51941;52.210;5.158;2024-03-17T12:42:05;101914.63;;;13.97;56.49
65329;BME280;51941;52.210;5.158;2024-03-17T12:44:33;101908.00;;;13.68;57.29
65329;BME280;51941;52.210;5.158;2024-03-17T12:47:01;101908.88;;;13.72;57.46
65329;BME280;51941;52.210;5.158;2024-03-17T12:49:28;101904.06;;;13.61;57.71
65329;BME280;51941;52.210;5.158;2024-03-17T12:51:56;101906.47;;;13.67;57.81
65329;BME280;51941;52.210;5.158;2024-03-17T12:54:26;101893.06;;;13.51;58.23
65329;BME280;51941;52.210;5.158;2024-03-17T12:57:02;101896.34;;;13.63;57.86
65329;BME280;51941;52.210;5.158;2024-03-17T12:59:47;101890.84;;;13.33;59.16
65329;BME280;51941;52.210;5.158;2024-03-17T13:02:34;101885.25;;;13.45;58.35
65329;BME280;51941;52.210;5.158;2024-03-17T13:05:22;101903.47;;;13.02;59.87